Time;durP1;ratioP1;P1;durP2;ratioP2;P2;SDS_P1;SDS_P2;PMS_P1;PMS_P2;Temp;Humidity;BMP_temperature;BMP_pressure;BME280_temperature;BME280_humidity;BME280_pressure;Samples;Min_cycle;Max_cycle;Signal;HPM_P1;HPM_P2
2022/01/02 00:00:46;;;;;;;11.80;7.30;;;10.20;99.90;;;;;;4904360;29;20415;-80
2022/01/02 00:03:18;;;;;;;12.70;7.10;;;10.20;99.90;;;;;;4919447;29;20395;-80
2022/01/02 00:05:45;;;;;;;12.45;7.45;;;10.10;99.90;;;;;;4900159;29;20387;-81
2022/01/02 00:08:12;;;;;;;13.18;7.43;;;10.00;99.90;;;;;;4918119;29;20903;-80
2022/01/02 00:10:56;;;;;;;13.32;7.38;;;10.00;99.90;;;;;;4917497;29;20478;-80
2022/01/02 00:13:28;;;;;;;11.70;7.00;;;10.00;99.90;;;;;;4910689;29;20479;-80
2022/01/02 00:15:56;;;;;;;13.55;7.20;;;9.80;99.90;;;;;;4902737;29;20933;-79
2022/01/02 00:18:27;;;;;;;14.38;7.47;;;9.80;99.90;;;;;;4903911;29;20438;-80
2022/01/02 00:20:56;;;;;;;11.98;7.38;;;9.70;99.90;;;;;;4897282;29;20466;-80
2022/01/02 00:23:29;;;;;;;12.18;7.47;;;9.70;99.90;;;;;;4900221;29;20427;-80
2022/01/02 00:26:04;;;;;;;9.38;6.93;;;9.50;99.90;;;;;;4884657;29;20397;-79
2022/01/02 00:28:33;;;;;;;10.82;7.32;;;9.50;99.90;;;;;;4904016;29;20419;-80
2022/01/02 00:30:58;;;;;;;12.15;7.70;;;9.50;99.90;;;;;;4902421;29;20400;-80
2022/01/02 00:33:25;;;;;;;10.90;7.32;;;9.50;99.90;;;;;;4900229;29;20407;-81
2022/01/02 00:35:51;;;;;;;12.02;7.25;;;9.40;99.90;;;;;;4913608;29;20400;-81
2022/01/02 00:38:21;;;;;;;11.15;7.30;;;9.40;99.90;;;;;;4918465;29;20418;-80
2022/01/02 00:40:58;;;;;;;11.90;7.53;;;9.40;99.90;;;;;;4916186;29;20533;-80
2022/01/02 00:43:52;;;;;;;11.98;7.00;;;9.40;99.90;;;;;;4918814;29;20399;-81
2022/01/02 00:46:27;;;;;;;10.15;6.82;;;9.40;99.90;;;;;;4900494;29;20426;-81
2022/01/02 00:48:59;;;;;;;13.98;7.50;;;9.30;99.90;;;;;;4917922;29;20384;-81
2022/01/02 00:52:04;;;;;;;11.73;7.97;;;9.30;99.90;;;;;;4901167;29;20388;-80
2022/01/02 00:54:36;;;;;;;11.35;7.80;;;9.40;99.90;;;;;;4869778;29;20399;-81
2022/01/02 00:57:05;;;;;;;10.03;7.20;;;9.40;99.90;;;;;;4899726;29;20434;-80
2022/01/02 01:00:03;;;;;;;11.90;7.43;;;9.40;99.90;;;;;;4917038;29;20430;-80
2022/01/02 01:02:44;;;;;;;10.25;7.50;;;9.30;99.90;;;;;;4918606;29;20392;-79
2022/01/02 01:05:10;;;;;;;9.82;6.82;;;9.30;99.90;;;;;;4902437;29;20442;-80
2022/01/02 01:07:38;;;;;;;11.32;7.63;;;9.40;99.90;;;;;;4900259;29;20763;-82
2022/01/02 01:10:33;;;;;;;11.75;6.90;;;9.40;99.90;;;;;;4914461;29;20936;-80
2022/01/02 01:13:15;;;;;;;10.80;7.25;;;9.40;99.90;;;;;;4897862;29;20391;-80
2022/01/02 01:15:49;;;;;;;10.65;7.03;;;9.40;99.90;;;;;;4916346;29;20415;-80
2022/01/02 01:18:15;;;;;;;12.45;7.70;;;9.40;99.90;;;;;;4901193;29;20406;-81
2022/01/02 01:20:43;;;;;;;11.65;7.63;;;9.40;99.90;;;;;;4900728;29;20419;-79
2022/01/02 01:23:16;;;;;;;12.35;7.40;;;9.40;99.90;;;;;;4919532;29;20392;-79
2022/01/02 01:25:47;;;;;;;12.52;8.25;;;9.30;99.90;;;;;;4918955;29;20544;-80
2022/01/02 01:28:17;;;;;;;15.38;7.65;;;9.40;99.90;;;;;;4903227;29;20400;-81
2022/01/02 01:30:44;;;;;;;12.80;7.70;;;9.40;99.90;;;;;;4902116;29;20414;-80
2022/01/02 01:33:10;;;;;;;12.13;7.90;;;9.40;99.90;;;;;;4921131;29;20450;-80
2022/01/02 01:35:38;;;;;;;11.98;7.90;;;9.50;99.90;;;;;;4904931;29;20387;-79
2022/01/02 01:38:04;;;;;;;10.43;8.10;;;9.50;99.90;;;;;;4906284;29;20471;-80
2022/01/02 01:40:37;;;;;;;12.45;8.90;;;9.50;99.90;;;;;;4904027;29;20428;-80
2022/01/02 01:43:05;;;;;;;14.50;9.00;;;9.40;99.90;;;;;;4905518;29;20489;-79
2022/01/02 01:45:30;;;;;;;12.05;8.60;;;9.50;99.90;;;;;;4923818;29;21106;-81
2022/01/02 01:48:06;;;;;;;13.03;8.93;;;9.40;99.90;;;;;;4922682;29;20427;-81
2022/01/02 01:50:40;;;;;;;13.82;9.32;;;9.40;99.90;;;;;;4900380;29;20404;-80
2022/01/02 01:53:07;;;;;;;12.33;9.53;;;9.40;99.90;;;;;;4899870;29;20394;-81
2022/01/02 01:55:37;;;;;;;14.93;9.70;;;9.40;99.90;;;;;;4917736;29;20375;-79
2022/01/02 01:58:04;;;;;;;12.98;9.27;;;9.40;99.90;;;;;;4899323;29;20455;-81
2022/01/02 02:00:33;;;;;;;13.05;9.30;;;9.30;99.90;;;;;;4916600;29;20427;-80
2022/01/02 02:03:00;;;;;;;14.25;10.02;;;9.40;99.90;;;;;;4898395;29;20863;-83
2022/01/02 02:05:29;;;;;;;14.05;10.15;;;9.40;99.90;;;;;;4917077;29;20382;-80
2022/01/02 02:07:54;;;;;;;13.95;10.20;;;9.30;99.90;;;;;;4917900;29;20539;-80
2022/01/02 02:13:16;;;;;;;13.43;9.45;;;9.30;99.90;;;;;;4915431;29;20387;-80
2022/01/02 02:15:42;;;;;;;14.63;10.70;;;9.30;99.90;;;;;;4884687;29;20469;-79
2022/01/02 02:18:08;;;;;;;13.88;10.30;;;9.30;99.90;;;;;;4915587;29;20878;-80
2022/01/02 02:20:36;;;;;;;14.03;9.73;;;9.20;99.90;;;;;;4916025;29;20448;-80
2022/01/02 02:23:03;;;;;;;12.57;9.53;;;9.10;99.90;;;;;;4900465;29;20775;-80
2022/01/02 02:25:32;;;;;;;12.87;10.00;;;9.10;99.90;;;;;;4918709;29;20384;-80
2022/01/02 02:28:04;;;;;;;12.02;10.18;;;9.10;99.90;;;;;;4918995;29;20425;-80
2022/01/02 02:30:32;;;;;;;15.68;10.30;;;9.00;99.90;;;;;;4918810;29;20422;-80
2022/01/02 02:33:00;;;;;;;16.20;10.10;;;9.10;99.90;;;;;;4920035;29;20474;-80
2022/01/02 02:35:27;;;;;;;15.43;10.45;;;9.00;99.90;;;;;;4922235;29;20394;-80
2022/01/02 02:37:53;;;;;;;15.70;10.35;;;9.00;99.90;;;;;;4923881;29;20391;-80
2022/01/02 02:40:21;;;;;;;15.13;10.45;;;9.00;99.90;;;;;;4905092;29;20411;-79
2022/01/02 02:43:09;;;;;;;12.73;9.98;;;9.00;99.90;;;;;;4905893;29;20455;-80
2022/01/02 02:49:00;;;;;;;16.27;10.30;;;8.90;99.90;;;;;;4922565;29;20398;-79
2022/01/02 02:51:22;;;;;;;15.50;10.60;;;8.90;99.90;;;;;;4907421;29;20427;-80
2022/01/02 02:53:49;;;;;;;15.45;11.27;;;8.90;99.90;;;;;;4904631;29;20395;-79
2022/01/02 02:56:25;;;;;;;14.50;10.67;;;8.80;99.90;;;;;;4919388;29;20407;-80
2022/01/02 02:58:56;;;;;;;16.65;11.27;;;8.80;99.90;;;;;;4919798;29;20395;-80
2022/01/02 03:01:26;;;;;;;16.33;10.98;;;8.80;99.90;;;;;;4902810;29;20427;-79
2022/01/02 03:03:52;;;;;;;18.33;11.27;;;8.80;99.90;;;;;;4903904;29;20942;-80
2022/01/02 03:06:18;;;;;;;14.43;10.40;;;8.80;99.90;;;;;;4903270;29;20392;-79
2022/01/02 03:08:53;;;;;;;16.23;10.23;;;8.80;99.90;;;;;;4905187;29;20399;-80
2022/01/02 03:11:21;;;;;;;14.77;10.98;;;8.90;99.90;;;;;;4920461;29;20375;-80
2022/01/02 03:13:49;;;;;;;15.23;10.93;;;8.90;99.90;;;;;;4901115;29;20412;-81
2022/01/02 03:16:16;;;;;;;13.57;10.73;;;8.90;99.90;;;;;;4917444;29;20478;-79
2022/01/02 03:18:42;;;;;;;13.48;10.45;;;8.80;99.90;;;;;;4921457;29;20431;-80
2022/01/02 03:21:09;;;;;;;13.55;10.80;;;8.90;99.90;;;;;;4922032;29;20419;-80
2022/01/02 03:23:35;;;;;;;12.75;10.50;;;8.80;99.90;;;;;;4904315;29;20384;-80
2022/01/02 03:26:01;;;;;;;12.98;10.43;;;8.80;99.90;;;;;;4922474;29;20395;-81
2022/01/02 03:28:26;;;;;;;13.95;10.60;;;8.80;99.90;;;;;;4922462;29;20399;-80
2022/01/02 03:30:52;;;;;;;12.32;9.70;;;8.80;99.90;;;;;;4923064;29;20408;-79
2022/01/02 03:33:18;;;;;;;14.17;10.83;;;8.80;99.90;;;;;;4905533;29;20400;-82
2022/01/02 03:35:44;;;;;;;13.15;10.65;;;8.90;99.90;;;;;;4905528;29;20457;-80
2022/01/02 03:38:10;;;;;;;11.80;10.27;;;8.80;99.90;;;;;;4904642;29;20950;-79
2022/01/02 03:40:36;;;;;;;14.00;10.88;;;8.90;99.90;;;;;;4917489;29;20451;-79
2022/01/02 03:43:03;;;;;;;13.00;10.25;;;8.90;99.90;;;;;;4902013;29;20414;-79
2022/01/02 03:45:29;;;;;;;16.90;11.27;;;8.90;99.90;;;;;;4886308;29;20537;-80
2022/01/02 03:47:55;;;;;;;13.73;10.50;;;9.00;99.90;;;;;;4902185;29;20857;-80
2022/01/02 03:50:21;;;;;;;14.30;11.17;;;9.00;99.90;;;;;;4902863;29;20413;-80
2022/01/02 03:52:46;;;;;;;15.85;11.40;;;9.00;99.90;;;;;;4919828;29;20467;-80
2022/01/02 03:55:15;;;;;;;16.77;11.40;;;8.90;99.90;;;;;;4920129;29;20395;-79
2022/01/02 03:57:41;;;;;;;15.25;11.57;;;8.80;99.90;;;;;;4901100;29;20396;-81
2022/01/02 04:00:13;;;;;;;16.23;10.70;;;8.90;99.90;;;;;;4902367;29;20416;-80
2022/01/02 04:02:38;;;;;;;13.77;10.82;;;9.00;99.90;;;;;;4920440;29;20406;-81
2022/01/02 04:05:06;;;;;;;12.05;10.23;;;9.00;99.90;;;;;;4920535;29;20443;-81
2022/01/02 04:07:32;;;;;;;14.40;11.68;;;8.90;99.90;;;;;;4903729;29;20443;-80
2022/01/02 04:10:05;;;;;;;13.60;11.48;;;8.90;99.90;;;;;;4904028;29;20391;-80
2022/01/02 04:12:32;;;;;;;18.27;11.88;;;8.90;99.90;;;;;;4904095;29;20413;-81
2022/01/02 04:14:58;;;;;;;17.17;11.88;;;8.80;99.90;;;;;;4920625;29;20380;-80
2022/01/02 04:17:24;;;;;;;14.55;11.48;;;8.80;99.90;;;;;;4923703;29;20447;-79
2022/01/02 04:19:51;;;;;;;15.32;11.55;;;8.80;99.90;;;;;;4921923;29;20411;-80
2022/01/02 04:22:17;;;;;;;15.95;11.77;;;8.90;99.90;;;;;;4907235;29;20399;-80
2022/01/02 04:24:42;;;;;;;16.95;11.82;;;8.90;99.90;;;;;;4922653;29;20383;-79
2022/01/02 04:27:08;;;;;;;15.32;11.57;;;8.80;99.90;;;;;;4923477;29;20727;-79
2022/01/02 04:29:34;;;;;;;15.30;11.53;;;8.80;99.90;;;;;;4907693;29;20459;-80
2022/01/02 04:32:00;;;;;;;15.05;11.85;;;8.80;99.90;;;;;;4923237;29;20431;-79
2022/01/02 04:34:25;;;;;;;15.55;11.88;;;8.60;99.90;;;;;;4904149;29;20432;-79
2022/01/02 04:36:51;;;;;;;16.47;12.40;;;8.60;99.90;;;;;;4922397;29;20391;-79
2022/01/02 04:39:17;;;;;;;15.97;12.80;;;8.50;99.90;;;;;;4922440;29;20391;-80
2022/01/02 04:41:43;;;;;;;16.73;12.98;;;8.50;99.90;;;;;;4904221;29;20416;-79
2022/01/02 04:44:08;;;;;;;17.02;12.57;;;8.50;99.90;;;;;;4922990;29;20850;-79
2022/01/02 04:46:34;;;;;;;16.40;12.15;;;8.50;99.90;;;;;;4925213;29;20764;-79
2022/01/02 04:49:00;;;;;;;16.75;12.57;;;8.50;99.90;;;;;;4925434;29;20756;-80
2022/01/02 04:51:25;;;;;;;16.27;12.77;;;8.50;99.90;;;;;;4925656;29;20818;-82
2022/01/02 04:53:51;;;;;;;16.05;12.65;;;8.50;99.90;;;;;;4924215;29;20713;-79
2022/01/02 04:56:18;;;;;;;14.03;11.43;;;8.50;99.90;;;;;;4905075;29;20407;-80
2022/01/02 04:58:44;;;;;;;15.73;12.13;;;8.50;99.90;;;;;;4903466;29;20391;-80
2022/01/02 05:01:14;;;;;;;17.40;12.57;;;8.40;99.90;;;;;;4919874;29;20426;-80
2022/01/02 05:03:40;;;;;;;13.68;11.68;;;8.40;99.90;;;;;;4921007;29;20981;-79
2022/01/02 05:06:07;;;;;;;15.70;12.38;;;8.40;99.90;;;;;;4921292;29;20391;-79
2022/01/02 05:08:32;;;;;;;17.00;12.07;;;8.30;99.90;;;;;;4920757;29;20410;-81
2022/01/02 05:10:58;;;;;;;15.10;12.50;;;8.20;99.90;;;;;;4921541;29;20870;-80
2022/01/02 05:13:25;;;;;;;18.10;13.27;;;8.20;99.90;;;;;;4904737;29;20380;-80
2022/01/02 05:15:50;;;;;;;14.93;12.48;;;8.10;99.90;;;;;;4923120;29;20391;-79
2022/01/02 05:18:16;;;;;;;13.50;11.87;;;8.10;99.90;;;;;;4922412;29;20399;-80
2022/01/02 05:20:46;;;;;;;14.03;12.50;;;8.10;99.90;;;;;;4922060;29;20922;-80
2022/01/02 05:23:14;;;;;;;16.65;12.23;;;8.20;99.90;;;;;;4903668;29;20419;-79
2022/01/02 05:25:40;;;;;;;17.33;13.27;;;8.20;99.90;;;;;;4921988;29;20383;-80
2022/01/02 05:28:05;;;;;;;14.80;12.70;;;8.20;99.90;;;;;;4903987;29;20852;-80
2022/01/02 05:30:31;;;;;;;16.95;13.38;;;8.20;99.90;;;;;;4917898;29;20395;-80
2022/01/02 05:32:57;;;;;;;18.70;13.38;;;8.30;99.90;;;;;;4915787;29;20407;-79
2022/01/02 05:35:23;;;;;;;16.30;13.10;;;8.20;99.90;;;;;;4899295;29;20547;-81
2022/01/02 05:37:48;;;;;;;18.48;13.98;;;8.20;99.90;;;;;;4917365;29;20419;-80
2022/01/02 05:40:14;;;;;;;18.85;14.27;;;8.10;99.90;;;;;;4917379;29;20451;-80
2022/01/02 05:42:40;;;;;;;18.83;13.98;;;8.00;99.90;;;;;;4900139;29;20483;-81
2022/01/02 05:45:06;;;;;;;17.27;14.07;;;8.00;99.90;;;;;;4916939;29;21138;-80
2022/01/02 05:47:31;;;;;;;15.97;13.70;;;8.00;99.90;;;;;;4916345;29;20925;-81
2022/01/02 05:49:57;;;;;;;16.23;13.63;;;8.00;99.90;;;;;;4899164;29;20398;-81
2022/01/02 05:52:22;;;;;;;16.60;14.40;;;8.00;99.90;;;;;;4899765;29;20422;-81
2022/01/02 05:54:48;;;;;;;16.87;13.50;;;8.00;99.90;;;;;;4918510;29;20384;-80
2022/01/02 05:57:14;;;;;;;21.33;14.38;;;8.00;99.90;;;;;;4902936;29;20395;-81
2022/01/02 05:59:40;;;;;;;19.23;14.43;;;8.00;99.90;;;;;;4916270;29;20387;-81
2022/01/02 06:02:06;;;;;;;17.93;13.60;;;8.10;99.90;;;;;;4898911;29;21700;-80
2022/01/02 06:04:32;;;;;;;15.30;12.73;;;8.10;99.90;;;;;;4916388;29;20407;-81
2022/01/02 06:06:57;;;;;;;16.30;13.63;;;8.20;99.90;;;;;;4916805;29;20400;-81
2022/01/02 06:09:23;;;;;;;18.73;13.65;;;8.20;99.90;;;;;;4917981;29;20387;-80
2022/01/02 06:11:49;;;;;;;18.08;14.73;;;8.30;99.90;;;;;;4898642;29;20384;-79
2022/01/02 06:14:16;;;;;;;19.43;14.90;;;8.30;99.90;;;;;;4915026;29;20391;-80
2022/01/02 06:16:41;;;;;;;18.40;14.55;;;8.30;99.90;;;;;;4897843;29;20400;-79
2022/01/02 06:19:07;;;;;;;19.83;15.00;;;8.30;99.90;;;;;;4897671;29;20404;-81
2022/01/02 06:21:33;;;;;;;16.70;14.75;;;8.40;99.90;;;;;;4883567;29;20419;-81
2022/01/02 06:23:58;;;;;;;17.38;13.85;;;8.40;99.90;;;;;;4899034;29;20411;-80
2022/01/02 06:26:24;;;;;;;19.03;14.07;;;8.50;99.90;;;;;;4917442;29;20398;-81
2022/01/02 06:28:49;;;;;;;18.02;13.30;;;8.50;99.90;;;;;;4917269;29;20384;-80
2022/01/02 06:31:15;;;;;;;20.60;13.83;;;8.60;99.90;;;;;;4915897;29;20470;-81
2022/01/02 06:33:41;;;;;;;16.57;12.57;;;8.60;99.90;;;;;;4916178;29;20414;-81
2022/01/02 06:36:06;;;;;;;20.05;12.90;;;8.70;99.90;;;;;;4915737;29;20415;-81
2022/01/02 06:38:32;;;;;;;15.00;12.30;;;8.80;99.90;;;;;;4914514;29;20890;-82
2022/01/02 06:40:57;;;;;;;15.25;11.70;;;8.80;99.90;;;;;;4917902;29;20443;-80
2022/01/02 06:43:24;;;;;;;16.63;11.90;;;8.90;99.90;;;;;;4917110;29;20408;-80
2022/01/02 06:45:50;;;;;;;14.75;11.60;;;9.00;99.90;;;;;;4916537;29;20387;-80
2022/01/02 06:48:15;;;;;;;15.93;11.53;;;9.00;99.90;;;;;;4900269;29;20408;-82
2022/01/02 06:50:41;;;;;;;17.67;11.63;;;9.10;99.90;;;;;;4915846;29;20388;-79
2022/01/02 06:53:07;;;;;;;16.57;12.00;;;9.10;99.90;;;;;;4914734;29;20442;-82
2022/01/02 06:55:33;;;;;;;14.63;10.98;;;9.10;99.90;;;;;;4914783;29;20384;-81
2022/01/02 06:58:00;;;;;;;13.95;11.02;;;9.00;99.90;;;;;;4897166;29;20901;-82
2022/01/02 07:00:26;;;;;;;13.20;11.00;;;9.00;99.90;;;;;;4896898;29;20422;-81
2022/01/02 07:02:52;;;;;;;14.43;11.43;;;9.00;99.90;;;;;;4897352;29;20392;-80
2022/01/02 07:05:18;;;;;;;15.40;10.93;;;9.00;99.90;;;;;;4916478;29;21248;-80
2022/01/02 07:07:45;;;;;;;16.87;11.30;;;9.10;99.90;;;;;;4900884;29;20460;-83
2022/01/02 07:10:12;;;;;;;13.10;9.65;;;9.10;99.90;;;;;;4887350;29;20391;-82
2022/01/02 07:12:38;;;;;;;14.40;10.98;;;9.10;99.90;;;;;;4902863;29;20464;-81
2022/01/02 07:15:06;;;;;;;12.55;9.90;;;9.10;99.90;;;;;;4904583;29;20388;-82
2022/01/02 07:17:32;;;;;;;13.15;9.68;;;9.20;99.90;;;;;;4905251;29;20422;-80
2022/01/02 07:19:57;;;;;;;11.93;9.18;;;9.20;99.90;;;;;;4907957;29;20463;-81
2022/01/02 07:22:23;;;;;;;13.47;9.47;;;9.30;99.90;;;;;;4926999;29;20416;-81
2022/01/02 07:24:51;;;;;;;11.88;8.68;;;9.40;99.90;;;;;;4909000;29;20435;-82
2022/01/02 07:27:18;;;;;;;10.40;8.57;;;9.40;99.90;;;;;;4923242;29;20443;-82
2022/01/02 07:29:48;;;;;;;11.30;8.87;;;9.40;99.90;;;;;;4922274;29;20435;-81
2022/01/02 07:32:14;;;;;;;13.05;9.10;;;9.40;99.90;;;;;;4922551;29;20384;-81
2022/01/02 07:34:39;;;;;;;12.63;8.38;;;9.40;99.90;;;;;;4920796;29;20399;-81
2022/01/02 07:37:06;;;;;;;11.32;8.60;;;9.40;99.90;;;;;;4920925;29;20871;-81
2022/01/02 07:39:32;;;;;;;11.70;8.85;;;9.30;99.90;;;;;;4920627;29;20475;-81
2022/01/02 07:41:58;;;;;;;11.33;8.70;;;9.30;99.90;;;;;;4920049;29;20439;-81
2022/01/02 07:44:23;;;;;;;10.77;8.13;;;9.40;99.90;;;;;;4919137;29;20394;-81
2022/01/02 07:46:49;;;;;;;10.77;7.90;;;9.40;99.90;;;;;;4919002;29;20878;-82
2022/01/02 07:49:14;;;;;;;11.13;8.10;;;9.40;99.90;;;;;;4917298;29;20392;-82
2022/01/02 07:51:40;;;;;;;10.25;7.40;;;9.40;99.90;;;;;;4917731;29;20380;-82
2022/01/02 07:54:06;;;;;;;10.25;8.15;;;9.50;99.90;;;;;;4918402;29;20888;-82
2022/01/02 07:56:31;;;;;;;9.10;7.50;;;9.50;99.90;;;;;;4918610;29;20376;-82
2022/01/02 07:58:59;;;;;;;11.38;7.50;;;9.60;99.90;;;;;;4918368;29;20447;-80
2022/01/02 08:01:25;;;;;;;9.82;7.60;;;9.60;99.90;;;;;;4901716;29;20515;-82
2022/01/02 08:03:51;;;;;;;9.20;7.07;;;9.60;99.90;;;;;;4899876;29;20415;-81
2022/01/02 08:06:17;;;;;;;8.98;7.07;;;9.70;99.90;;;;;;4902663;29;21060;-80
2022/01/02 08:08:44;;;;;;;10.07;6.88;;;9.70;99.90;;;;;;4921846;29;20403;-80
2022/01/02 08:11:12;;;;;;;9.10;6.85;;;9.70;99.90;;;;;;4903041;29;20491;-82
2022/01/02 08:13:37;;;;;;;9.90;7.65;;;9.90;99.90;;;;;;4918468;29;20400;-82
2022/01/02 08:16:03;;;;;;;10.67;7.03;;;9.90;99.90;;;;;;4900603;29;20471;-82
2022/01/02 08:18:29;;;;;;;10.97;8.03;;;9.90;99.90;;;;;;4918111;29;20407;-83
2022/01/02 08:20:57;;;;;;;8.68;7.50;;;10.00;99.90;;;;;;4917707;29;20422;-82
2022/01/02 08:23:23;;;;;;;11.90;8.75;;;10.00;99.90;;;;;;4917647;29;20383;-81
2022/01/02 08:25:49;;;;;;;9.60;7.65;;;10.00;99.90;;;;;;4916476;29;20802;-81
2022/01/02 08:28:16;;;;;;;10.15;7.60;;;10.10;99.90;;;;;;4898692;29;20392;-82
2022/01/02 08:30:43;;;;;;;10.43;6.90;;;10.20;99.90;;;;;;4900097;29;20454;-81
2022/01/02 08:33:10;;;;;;;9.45;7.10;;;10.30;99.90;;;;;;4915596;29;20380;-80
2022/01/02 08:35:37;;;;;;;10.48;7.72;;;10.30;99.90;;;;;;4915948;29;20712;-82
2022/01/02 08:38:02;;;;;;;12.68;8.30;;;10.40;99.90;;;;;;4885121;29;20932;-80
2022/01/02 08:40:30;;;;;;;11.82;7.20;;;10.40;99.90;;;;;;4917925;29;20412;-80
2022/01/02 08:42:55;;;;;;;8.85;6.55;;;10.40;99.90;;;;;;4916367;29;20407;-81
2022/01/02 08:45:21;;;;;;;9.37;6.73;;;10.50;99.90;;;;;;4917139;29;20387;-80
2022/01/02 08:47:46;;;;;;;9.87;6.07;;;10.50;99.90;;;;;;4914941;29;20376;-80
2022/01/02 08:50:12;;;;;;;13.15;6.40;;;10.60;99.90;;;;;;4914720;29;20424;-81
2022/01/02 08:52:39;;;;;;;9.30;5.90;;;10.70;99.90;;;;;;4916836;29;20471;-81
2022/01/02 08:55:05;;;;;;;9.13;6.13;;;10.60;99.90;;;;;;4898341;29;20407;-81
2022/01/02 08:57:31;;;;;;;11.85;5.80;;;10.70;99.90;;;;;;4916269;29;20399;-81
2022/01/02 08:59:56;;;;;;;11.30;6.20;;;10.80;99.90;;;;;;4898327;29;20391;-81
2022/01/02 09:02:22;;;;;;;10.37;5.40;;;10.80;99.90;;;;;;4899060;29;20396;-81
2022/01/02 09:04:47;;;;;;;7.57;5.50;;;10.90;99.90;;;;;;4917068;29;20511;-80
2022/01/02 09:07:13;;;;;;;8.65;5.55;;;10.90;99.90;;;;;;4899982;29;20395;-81
2022/01/02 09:09:40;;;;;;;8.20;5.27;;;10.90;99.90;;;;;;4914885;29;20758;-81
2022/01/02 09:12:07;;;;;;;8.52;5.50;;;10.90;99.90;;;;;;4899736;29;20391;-80
2022/01/02 09:14:33;;;;;;;8.68;5.50;;;11.00;99.90;;;;;;4916109;29;20395;-81
2022/01/02 09:16:59;;;;;;;10.50;5.90;;;11.00;99.90;;;;;;4899165;29;20398;-81
2022/01/02 09:19:25;;;;;;;11.18;5.50;;;11.10;99.90;;;;;;4919547;29;20490;-79
2022/01/02 09:21:50;;;;;;;10.45;5.05;;;11.10;99.90;;;;;;4917618;29;20501;-80
2022/01/02 09:24:16;;;;;;;11.23;5.32;;;11.30;99.90;;;;;;4898624;29;20391;-79
2022/01/02 09:26:42;;;;;;;9.10;5.07;;;11.30;99.90;;;;;;4916877;29;20407;-80
2022/01/02 09:29:07;;;;;;;8.98;5.32;;;11.40;99.90;;;;;;4917524;29;20394;-80
2022/01/02 09:31:33;;;;;;;9.57;4.97;;;11.50;99.90;;;;;;4899045;29;20397;-82
2022/01/02 09:33:59;;;;;;;9.20;4.63;;;11.50;99.90;;;;;;4880966;29;20397;-80
2022/01/02 09:36:25;;;;;;;8.30;4.40;;;11.60;99.90;;;;;;4897081;29;20377;-80
2022/01/02 09:38:51;;;;;;;8.27;4.38;;;11.60;99.90;;;;;;4894389;29;20422;-80
2022/01/02 09:41:20;;;;;;;9.73;4.50;;;11.70;99.90;;;;;;4881709;29;20777;-80
2022/01/02 09:43:49;;;;;;;7.60;4.55;;;11.70;99.90;;;;;;4896477;29;20405;-80
2022/01/02 09:46:21;;;;;;;6.28;3.92;;;11.80;99.90;;;;;;4880130;29;20439;-81
2022/01/02 09:48:49;;;;;;;7.95;4.10;;;11.90;99.90;;;;;;4894579;29;20421;-82
2022/01/02 09:51:24;;;;;;;7.18;4.35;;;12.00;99.90;;;;;;4880954;29;20433;-80
2022/01/02 09:53:51;;;;;;;8.47;4.37;;;11.90;99.90;;;;;;4896325;29;20475;-80
2022/01/02 09:56:17;;;;;;;9.93;4.70;;;12.00;99.90;;;;;;4880034;29;20406;-81
2022/01/02 09:58:44;;;;;;;11.63;4.77;;;12.00;99.90;;;;;;4896935;29;20486;-80
2022/01/02 10:01:18;;;;;;;10.93;5.10;;;12.00;99.90;;;;;;4881292;29;20425;-81
2022/01/02 10:03:45;;;;;;;11.35;4.75;;;12.10;99.90;;;;;;4888765;29;20427;-79
2022/01/02 10:06:13;;;;;;;10.88;4.85;;;12.10;99.90;;;;;;4915373;29;20392;-79
2022/01/02 10:08:43;;;;;;;7.90;4.47;;;12.10;99.90;;;;;;4898829;29;20398;-79
2022/01/02 10:11:25;;;;;;;9.70;4.47;;;12.20;99.90;;;;;;4916724;29;20395;-81
2022/01/02 10:13:54;;;;;;;10.30;4.20;;;12.30;99.90;;;;;;4901662;29;20407;-79
2022/01/02 10:16:31;;;;;;;10.48;4.70;;;12.30;99.90;;;;;;4901152;29;20909;-79
2022/01/02 10:18:58;;;;;;;7.72;4.15;;;12.20;99.90;;;;;;4918717;29;20906;-80
2022/01/02 10:21:39;;;;;;;9.35;5.13;;;12.20;99.90;;;;;;4899913;29;20420;-80
2022/01/02 10:24:22;;;;;;;10.02;5.50;;;12.10;99.90;;;;;;4902440;29;20463;-78
2022/01/02 10:27:12;;;;;;;10.30;5.70;;;12.10;99.90;;;;;;4897861;29;20883;-80
2022/01/02 10:29:58;;;;;;;8.20;4.87;;;12.10;99.90;;;;;;4882120;29;20409;-82
2022/01/02 10:32:34;;;;;;;10.85;5.30;;;12.10;99.90;;;;;;4900580;29;20397;-80
2022/01/02 10:35:21;;;;;;;6.72;4.85;;;12.10;99.90;;;;;;4919480;29;20415;-79
2022/01/02 10:38:00;;;;;;;10.60;5.03;;;12.00;99.90;;;;;;4901451;29;20411;-80
2022/01/02 10:40:35;;;;;;;9.40;4.72;;;11.90;99.90;;;;;;4901557;29;20462;-79
2022/01/02 10:43:20;;;;;;;8.85;4.90;;;11.80;99.90;;;;;;4918814;29;20886;-80
2022/01/02 10:45:53;;;;;;;9.32;4.38;;;11.80;99.90;;;;;;4902521;29;20382;-80
2022/01/02 10:48:37;;;;;;;10.63;5.13;;;11.70;99.90;;;;;;4901689;29;20863;-79
2022/01/02 10:51:06;;;;;;;9.52;4.78;;;11.70;99.90;;;;;;4918319;29;20455;-81
2022/01/02 10:53:34;;;;;;;9.25;5.05;;;11.70;99.90;;;;;;4918893;29;20449;-80
2022/01/02 10:56:00;;;;;;;8.43;5.13;;;11.70;99.90;;;;;;4905863;29;20407;-80
2022/01/02 10:58:26;;;;;;;8.75;5.72;;;11.60;99.90;;;;;;4922747;29;20953;-80
2022/01/02 11:00:52;;;;;;;11.35;4.90;;;11.60;99.90;;;;;;4904869;29;20515;-79
2022/01/02 11:03:28;;;;;;;10.82;4.65;;;11.60;99.90;;;;;;4922625;29;20376;-79
2022/01/02 11:06:00;;;;;;;9.15;4.78;;;11.50;99.90;;;;;;4904361;29;21035;-80
2022/01/02 11:08:29;;;;;;;9.33;4.23;;;11.50;99.90;;;;;;4906039;29;20557;-80
2022/01/02 11:10:56;;;;;;;9.43;4.70;;;11.60;99.90;;;;;;4888089;29;20407;-80
2022/01/02 11:13:22;;;;;;;7.82;4.78;;;11.60;99.90;;;;;;4904609;29;20886;-80
2022/01/02 11:15:48;;;;;;;9.05;4.65;;;11.60;99.90;;;;;;4903995;29;20753;-80
2022/01/02 11:18:15;;;;;;;8.38;5.20;;;11.60;99.90;;;;;;4921312;29;20420;-80
2022/01/02 11:20:41;;;;;;;9.05;5.00;;;11.70;99.90;;;;;;4896482;29;20437;-80
2022/01/02 11:23:20;;;;;;;8.25;4.90;;;11.80;99.90;;;;;;4922504;29;20387;-80
2022/01/02 11:25:55;;;;;;;10.10;5.40;;;11.90;99.90;;;;;;4906858;29;20841;-80
2022/01/02 11:28:34;;;;;;;11.18;5.20;;;11.80;99.90;;;;;;4922034;29;20418;-80
2022/01/02 11:31:02;;;;;;;7.88;4.95;;;11.80;99.90;;;;;;4920546;29;20395;-79
2022/01/02 11:33:31;;;;;;;8.77;4.60;;;11.70;99.90;;;;;;4922695;29;20375;-79
2022/01/02 11:36:08;;;;;;;9.82;5.18;;;11.70;99.90;;;;;;4921103;29;20977;-80
2022/01/02 11:38:43;;;;;;;10.90;5.05;;;11.60;99.90;;;;;;4905717;29;20391;-80
2022/01/02 11:41:09;;;;;;;10.30;5.00;;;11.50;99.90;;;;;;4905213;29;20523;-80
2022/01/02 11:43:46;;;;;;;8.70;5.05;;;11.50;99.90;;;;;;4903710;29;20407;-79
2022/01/02 11:46:27;;;;;;;8.60;5.07;;;11.50;99.90;;;;;;4901154;29;20411;-80
2022/01/02 11:49:05;;;;;;;9.88;5.88;;;11.40;99.90;;;;;;4900790;29;20423;-80
2022/01/02 11:51:52;;;;;;;12.18;7.18;;;11.40;99.90;;;;;;4900857;29;20411;-80
2022/01/02 11:54:30;;;;;;;13.13;7.57;;;11.20;99.90;;;;;;4914162;29;20933;-81
2022/01/02 11:57:00;;;;;;;10.95;6.78;;;11.20;99.90;;;;;;4919211;29;20407;-80
2022/01/02 11:59:47;;;;;;;12.65;6.40;;;11.10;99.90;;;;;;4916941;29;20399;-80
2022/01/02 12:02:13;;;;;;;10.32;6.60;;;11.10;99.90;;;;;;4918791;29;20388;-79
2022/01/02 12:04:57;;;;;;;12.40;6.37;;;11.00;99.90;;;;;;4918782;29;20395;-82
2022/01/02 12:07:35;;;;;;;10.17;6.30;;;11.00;99.90;;;;;;4913041;29;20406;-80
2022/01/02 12:10:35;;;;;;;11.35;5.88;;;11.00;99.90;;;;;;4917548;29;20450;-81
2022/01/02 12:13:10;;;;;;;10.10;5.87;;;10.90;99.90;;;;;;4891499;29;20516;-80
2022/01/02 12:15:40;;;;;;;9.60;5.70;;;10.90;99.90;;;;;;4915520;29;20402;-80
2022/01/02 12:18:26;;;;;;;10.20;6.05;;;11.00;99.90;;;;;;4899017;29;20391;-80
2022/01/02 12:20:57;;;;;;;10.57;5.75;;;10.90;99.90;;;;;;4899682;29;21301;-80
2022/01/02 12:23:53;;;;;;;11.37;6.17;;;10.90;99.90;;;;;;4919895;29;20392;-80
2022/01/02 12:26:40;;;;;;;13.10;6.38;;;10.90;99.90;;;;;;4919530;29;20471;-81
2022/01/02 12:29:10;;;;;;;12.35;6.90;;;10.90;99.90;;;;;;4901008;29;20791;-81
2022/01/02 12:31:40;;;;;;;13.85;6.40;;;10.90;99.90;;;;;;4904243;29;20411;-80
2022/01/02 12:34:14;;;;;;;12.93;6.32;;;10.80;99.90;;;;;;4920219;29;20384;-80
2022/01/02 12:36:44;;;;;;;13.05;6.70;;;10.80;99.90;;;;;;4918772;29;20890;-81
2022/01/02 12:39:12;;;;;;;14.80;7.05;;;10.80;99.90;;;;;;4917530;29;20889;-79
2022/01/02 12:41:40;;;;;;;11.43;6.83;;;10.80;99.90;;;;;;4902201;29;20426;-80
2022/01/02 12:44:15;;;;;;;11.68;6.70;;;10.90;99.90;;;;;;4901042;29;20408;-80
2022/01/02 12:46:50;;;;;;;12.32;7.20;;;10.80;99.90;;;;;;4920217;29;20502;-81
2022/01/02 12:49:17;;;;;;;12.15;6.78;;;10.80;99.90;;;;;;4901058;29;20403;-79
2022/01/02 12:51:46;;;;;;;12.77;6.97;;;10.80;99.90;;;;;;4918509;29;20913;-81
2022/01/02 12:54:14;;;;;;;11.95;6.75;;;10.80;99.90;;;;;;4916117;29;20427;-81
2022/01/02 12:56:42;;;;;;;11.30;6.90;;;10.80;99.90;;;;;;4919085;29;20419;-81